createdAt,value
2019-01-19T00:02:45.229Z,25.77
2019-01-19T00:05:53.726Z,22.50
2019-01-19T00:09:03.353Z,23.50
2019-01-19T00:12:11.735Z,21.50
2019-01-19T00:14:50.908Z,19.97
2019-01-19T00:17:52.706Z,20.17
2019-01-19T00:20:54.942Z,18.83
2019-01-19T00:24:00.425Z,21.07
2019-01-19T00:27:19.583Z,19.63
2019-01-19T00:30:12.634Z,20.93
2019-01-19T00:32:56.413Z,19.90
2019-01-19T00:36:11.969Z,19.30
2019-01-19T00:39:27.960Z,18.70
2019-01-19T00:42:19.529Z,18.10
2019-01-19T00:45:21.161Z,19.87
2019-01-19T00:48:20.021Z,18.93
2019-01-19T00:51:41.587Z,21.37
2019-01-19T00:54:18.682Z,20.43
2019-01-19T00:57:06.353Z,20.60
2019-01-19T00:59:43.278Z,21.97
2019-01-19T01:02:50.774Z,21.97
2019-01-19T01:06:13.120Z,23.63
2019-01-19T01:09:15.541Z,22.13
2019-01-19T01:11:50.704Z,21.93
2019-01-19T01:14:44.962Z,22.73
2019-01-19T01:17:40.367Z,21.40
2019-01-19T01:20:41.197Z,21.40
2019-01-19T01:23:47.102Z,21.37
2019-01-19T01:26:48.845Z,20.30
2019-01-19T01:30:04.093Z,22.07
2019-01-19T01:33:00.937Z,22.03
2019-01-19T01:36:15.742Z,20.57
2019-01-19T01:39:17.465Z,20.57
2019-01-19T01:42:12.552Z,20.60
2019-01-19T01:45:12.054Z,17.77
2019-01-19T01:48:17.485Z,18.00
2019-01-19T01:51:14.040Z,17.57
2019-01-19T01:53:55.817Z,17.53
2019-01-19T01:56:24.719Z,18.67
2019-01-19T01:59:12.197Z,18.20
2019-01-19T02:02:37.647Z,15.97
2019-01-19T02:06:09.597Z,16.25
2019-01-19T02:09:20.365Z,16.03
2019-01-19T02:12:17.235Z,16.10
2019-01-19T02:15:13.169Z,16.43
2019-01-19T02:18:14.565Z,17.00
2019-01-19T02:21:21.905Z,17.10
2019-01-19T02:24:18.570Z,18.00
2019-01-19T02:27:09.202Z,18.37
2019-01-19T02:29:48.173Z,17.27
2019-01-19T02:32:52.576Z,17.63
2019-01-19T02:35:58.455Z,17.43
2019-01-19T02:39:06.760Z,18.00
2019-01-19T02:42:02.500Z,17.67
2019-01-19T02:44:54.633Z,17.30
2019-01-19T02:48:03.872Z,18.17
2019-01-19T02:50:41.313Z,17.87
2019-01-19T02:53:43.322Z,16.40
2019-01-19T02:56:22.017Z,17.90
2019-01-19T03:00:03.548Z,18.27
2019-01-19T03:03:07.886Z,16.50
2019-01-19T03:05:57.732Z,16.83
2019-01-19T03:08:59.110Z,16.53
2019-01-19T03:11:37.561Z,17.73
2019-01-19T03:14:50.785Z,19.43
2019-01-19T03:18:01.351Z,16.33
2019-01-19T03:20:56.817Z,17.40
2019-01-19T03:24:07.878Z,17.47
2019-01-19T03:26:52.293Z,17.37
2019-01-19T03:29:46.327Z,17.97
2019-01-19T03:32:40.171Z,18.50
2019-01-19T03:35:35.546Z,16.87
2019-01-19T03:38:55.385Z,17.63
2019-01-19T03:42:14.688Z,16.47
2019-01-19T03:45:06.639Z,16.83
2019-01-19T03:48:01.561Z,16.90
2019-01-19T03:51:30.250Z,17.53
2019-01-19T03:54:26.681Z,17.20
2019-01-19T03:57:13.433Z,16.17
2019-01-19T04:00:23.460Z,16.30
2019-01-19T04:03:42.632Z,16.63
2019-01-19T04:06:38.861Z,16.37
2019-01-19T04:10:01.182Z,16.10
2019-01-19T04:12:59.066Z,15.43
2019-01-19T04:15:55.022Z,16.53
2019-01-19T04:18:55.114Z,17.23
2019-01-19T04:21:43.674Z,16.57
2019-01-19T04:24:39.623Z,17.17
2019-01-19T04:27:08.494Z,17.33
2019-01-19T04:29:37.675Z,16.13
2019-01-19T04:32:06.617Z,16.87
2019-01-19T04:34:35.806Z,16.87
2019-01-19T04:37:05.235Z,16.70
2019-01-19T04:39:35.191Z,18.57
2019-01-19T04:42:05.553Z,16.50
2019-01-19T04:44:34.550Z,16.87
2019-01-19T04:47:03.280Z,16.17
2019-01-19T04:49:32.994Z,17.27
2019-01-19T04:52:01.891Z,16.37
2019-01-19T04:54:30.901Z,15.53
2019-01-19T04:56:59.731Z,15.50
2019-01-19T04:59:28.751Z,16.03
2019-01-19T05:02:00.205Z,15.77
2019-01-19T05:04:29.811Z,17.17
2019-01-19T05:06:58.573Z,16.73
2019-01-19T05:09:27.524Z,16.40
2019-01-19T05:11:58.198Z,16.27
2019-01-19T05:14:27.404Z,15.73
2019-01-19T05:16:56.550Z,16.30
2019-01-19T05:19:25.816Z,15.70
2019-01-19T05:21:54.949Z,16.13
2019-01-19T05:24:25.831Z,17.27
2019-01-19T05:26:55.049Z,16.33
2019-01-19T05:29:23.858Z,16.17
2019-01-19T05:31:53.541Z,15.50
2019-01-19T05:34:22.901Z,14.43
2019-01-19T05:36:51.857Z,15.83
2019-01-19T05:39:20.612Z,15.57
2019-01-19T05:41:49.380Z,16.50
2019-01-19T05:44:18.307Z,15.60
2019-01-19T05:46:47.225Z,16.80
2019-01-19T05:49:16.072Z,16.70
2019-01-19T05:51:45.007Z,16.47
2019-01-19T05:54:13.894Z,16.43
2019-01-19T05:56:43.910Z,15.97
2019-01-19T05:59:12.779Z,15.93
2019-01-19T06:01:41.869Z,17.07
2019-01-19T06:04:10.811Z,16.30
2019-01-19T06:06:46.689Z,16.40
2019-01-19T06:09:10.299Z,16.47
2019-01-19T06:11:39.191Z,16.40
2019-01-19T06:14:09.160Z,15.23
2019-01-19T06:16:38.421Z,15.37
2019-01-19T06:19:07.585Z,15.23
2019-01-19T06:21:42.366Z,14.87
2019-01-19T06:24:11.338Z,15.67
2019-01-19T06:26:40.625Z,15.73
2019-01-19T06:29:09.663Z,17.33
2019-01-19T06:31:38.698Z,16.33
2019-01-19T06:34:08.311Z,16.60
2019-01-19T06:36:39.793Z,16.53
2019-01-19T06:39:09.410Z,15.43
2019-01-19T06:41:38.238Z,16.33
2019-01-19T06:44:08.389Z,16.47
2019-01-19T06:46:37.409Z,17.57
2019-01-19T06:49:07.077Z,15.13
2019-01-19T06:51:35.940Z,15.67
2019-01-19T06:54:06.582Z,15.80
2019-01-19T06:56:35.525Z,15.87
2019-01-19T06:59:04.904Z,15.33
2019-01-19T07:01:34.334Z,15.93
2019-01-19T07:04:03.313Z,16.70
2019-01-19T07:06:32.283Z,15.97
2019-01-19T07:09:02.022Z,16.53
2019-01-19T07:11:31.718Z,17.10
2019-01-19T07:14:00.481Z,15.30
2019-01-19T07:16:29.357Z,15.33
2019-01-19T07:18:58.166Z,15.60
2019-01-19T07:21:28.127Z,17.13
2019-01-19T07:23:57.301Z,16.70
2019-01-19T07:26:26.157Z,17.07
2019-01-19T07:28:55.345Z,17.37
2019-01-19T07:31:24.692Z,18.03
2019-01-19T07:33:53.673Z,20.57
2019-01-19T07:36:22.545Z,18.67
2019-01-19T07:38:51.446Z,19.43
2019-01-19T07:41:20.433Z,18.77
2019-01-19T07:43:50.535Z,18.60
2019-01-19T07:46:19.944Z,18.83
2019-01-19T07:48:49.157Z,22.00
2019-01-19T07:51:18.386Z,51.33
2019-01-19T07:53:47.224Z,55.57
2019-01-19T07:56:16.125Z,36.47
2019-01-19T07:58:45.526Z,33.70
2019-01-19T08:01:14.593Z,26.73
2019-01-19T08:03:44.737Z,25.97
2019-01-19T08:06:13.775Z,40.67
2019-01-19T08:08:44.746Z,53.20
2019-01-19T08:11:13.514Z,35.07
2019-01-19T08:13:42.909Z,45.67
2019-01-19T08:16:13.005Z,36.33
2019-01-19T08:18:43.753Z,23.13
2019-01-19T08:21:18.250Z,25.57
2019-01-19T08:23:47.011Z,21.43
2019-01-19T08:26:17.145Z,20.40
2019-01-19T08:28:47.426Z,20.53
2019-01-19T08:31:18.513Z,21.50
2019-01-19T08:33:48.002Z,21.33
2019-01-19T08:36:18.070Z,21.00
2019-01-19T08:38:47.253Z,21.17
2019-01-19T08:41:17.366Z,23.87
2019-01-19T08:43:53.122Z,48.87
2019-01-19T08:46:23.213Z,34.47
2019-01-19T08:48:52.313Z,26.57
2019-01-19T08:51:21.369Z,25.07
2019-01-19T08:53:50.195Z,25.43
2019-01-19T08:56:19.612Z,25.37
2019-01-19T08:58:48.572Z,23.50
2019-01-19T09:01:17.789Z,24.57
2019-01-19T09:03:47.862Z,22.87
2019-01-19T09:06:17.058Z,23.07
2019-01-19T09:08:46.260Z,24.37
2019-01-19T09:11:15.545Z,23.40
2019-01-19T09:13:44.706Z,25.13
2019-01-19T09:16:16.241Z,23.67
2019-01-19T09:18:46.249Z,25.40
2019-01-19T09:21:15.021Z,24.50
2019-01-19T09:24:03.043Z,27.33
2019-01-19T09:26:32.177Z,30.77
2019-01-19T09:29:01.240Z,27.57
2019-01-19T09:31:30.442Z,26.23
2019-01-19T09:33:59.451Z,28.43
2019-01-19T09:36:28.645Z,28.37
2019-01-19T09:38:58.304Z,28.43
2019-01-19T09:41:27.266Z,31.50
2019-01-19T09:43:56.097Z,36.23
2019-01-19T09:46:25.266Z,30.73
2019-01-19T09:48:55.013Z,36.27
2019-01-19T09:51:24.609Z,38.60
2019-01-19T09:53:54.701Z,46.93
2019-01-19T09:56:24.846Z,41.47
2019-01-19T09:58:53.742Z,43.20
2019-01-19T10:01:23.073Z,45.33
2019-01-19T10:03:51.952Z,47.83
2019-01-19T10:06:32.803Z,52.10
2019-01-19T10:09:05.689Z,39.53
2019-01-19T10:11:35.123Z,36.73
2019-01-19T10:14:05.582Z,39.87
2019-01-19T10:16:35.369Z,34.03
2019-01-19T10:19:04.277Z,29.67
2019-01-19T10:21:33.573Z,26.90
2019-01-19T10:24:02.633Z,28.93
2019-01-19T10:26:32.180Z,24.63
2019-01-19T10:29:01.110Z,22.77
2019-01-19T10:31:30.610Z,23.10
2019-01-19T10:33:59.399Z,21.47
2019-01-19T10:36:28.489Z,19.93
2019-01-19T10:38:57.670Z,17.97
2019-01-19T10:41:27.589Z,17.03
2019-01-19T10:43:56.486Z,17.70
2019-01-19T10:46:25.839Z,16.53
2019-01-19T10:48:54.806Z,15.23
2019-01-19T10:51:24.918Z,17.00
2019-01-19T10:53:54.494Z,17.33
2019-01-19T10:56:24.918Z,16.00
2019-01-19T10:58:54.106Z,14.47
2019-01-19T11:01:23.230Z,14.20
2019-01-19T11:03:52.007Z,14.07
2019-01-19T11:06:21.170Z,15.23
2019-01-19T11:08:51.281Z,16.73
2019-01-19T11:11:20.307Z,15.90
2019-01-19T11:13:49.129Z,13.87
2019-01-19T11:16:17.985Z,15.33
2019-01-19T11:18:46.773Z,13.87
2019-01-19T11:21:15.580Z,13.97
2019-01-19T11:23:44.623Z,14.13
2019-01-19T11:26:13.502Z,14.00
2019-01-19T11:28:42.362Z,13.73
2019-01-19T11:31:12.245Z,14.80
2019-01-19T11:33:42.661Z,13.57
2019-01-19T11:36:11.617Z,13.90
2019-01-19T11:38:41.533Z,13.53
2019-01-19T11:41:11.261Z,13.63
2019-01-19T11:43:40.112Z,13.63
2019-01-19T11:46:08.853Z,13.67
2019-01-19T11:48:37.865Z,13.60
2019-01-19T11:51:06.833Z,14.10
2019-01-19T11:53:35.725Z,14.57
2019-01-19T11:56:12.001Z,12.93
2019-01-19T11:58:35.681Z,12.70
2019-01-19T12:01:04.970Z,13.50
2019-01-19T12:03:34.075Z,14.40
2019-01-19T12:06:05.326Z,13.93
2019-01-19T12:08:34.350Z,14.03
2019-01-19T12:11:03.202Z,14.57
2019-01-19T12:13:32.286Z,14.37
2019-01-19T12:16:01.164Z,16.40
2019-01-19T12:18:30.077Z,21.33
2019-01-19T12:20:59.226Z,16.63
2019-01-19T12:23:27.991Z,16.87
2019-01-19T12:25:56.961Z,19.37
2019-01-19T12:28:26.054Z,15.23
2019-01-19T12:30:55.166Z,20.43
2019-01-19T12:33:24.061Z,18.23
2019-01-19T12:35:52.934Z,17.80
2019-01-19T12:38:26.793Z,19.87
2019-01-19T12:40:52.342Z,18.03
2019-01-19T12:43:22.785Z,18.67
2019-01-19T12:45:54.352Z,17.17
2019-01-19T12:48:23.148Z,15.97
2019-01-19T12:50:52.488Z,15.77
2019-01-19T12:53:21.750Z,16.23
2019-01-19T12:55:50.844Z,15.27
2019-01-19T12:58:19.907Z,15.23
2019-01-19T13:00:48.812Z,15.93
2019-01-19T13:03:17.826Z,14.63
2019-01-19T13:05:54.803Z,14.23
2019-01-19T13:08:24.139Z,13.73
2019-01-19T13:10:59.914Z,14.20
2019-01-19T13:13:33.519Z,14.50
2019-01-19T13:16:35.413Z,14.23
2019-01-19T13:19:44.445Z,14.37
2019-01-19T13:22:48.060Z,13.10
2019-01-19T13:26:05.425Z,13.90
2019-01-19T13:29:17.322Z,13.70
2019-01-19T13:32:55.432Z,13.70
2019-01-19T13:35:48.365Z,13.40
2019-01-19T13:38:28.306Z,13.20
2019-01-19T13:41:23.327Z,13.20
2019-01-19T13:44:39.716Z,13.43
2019-01-19T13:47:25.014Z,13.10
2019-01-19T13:50:34.487Z,17.73
2019-01-19T13:53:58.664Z,13.70
2019-01-19T13:57:09.262Z,14.37
2019-01-19T14:00:28.823Z,11.93
2019-01-19T14:03:33.858Z,11.47
2019-01-19T14:06:53.861Z,12.57
2019-01-19T14:10:15.965Z,12.50
2019-01-19T14:13:26.353Z,12.37
2019-01-19T14:16:01.782Z,11.80
2019-01-19T14:19:09.114Z,11.97
2019-01-19T14:22:05.265Z,11.77
2019-01-19T14:25:26.890Z,11.00
2019-01-19T14:28:29.361Z,11.53
2019-01-19T14:31:41.709Z,12.30
2019-01-19T14:35:00.177Z,10.60
2019-01-19T14:37:57.575Z,12.30
2019-01-19T14:41:07.875Z,11.53
2019-01-19T14:44:20.991Z,11.30
2019-01-19T14:47:34.301Z,11.57
2019-01-19T14:50:41.949Z,10.90
2019-01-19T14:53:51.055Z,10.87
2019-01-19T14:57:00.947Z,11.50
2019-01-19T14:59:43.542Z,10.67
2019-01-19T15:03:00.275Z,10.70
2019-01-19T15:06:09.203Z,10.40
2019-01-19T15:09:18.489Z,10.33
2019-01-19T15:12:02.617Z,9.83
2019-01-19T15:15:06.409Z,9.53
2019-01-19T15:18:08.409Z,9.80
2019-01-19T15:21:01.267Z,8.83
2019-01-19T15:24:07.177Z,9.73
2019-01-19T15:27:34.441Z,12.63
2019-01-19T15:30:30.084Z,9.33
2019-01-19T15:33:58.530Z,8.97
2019-01-19T15:37:13.433Z,9.13
2019-01-19T15:39:50.535Z,8.40
2019-01-19T15:43:09.857Z,9.33
2019-01-19T15:45:57.613Z,12.47
2019-01-19T15:48:56.375Z,11.83
2019-01-19T15:52:00.718Z,22.37
2019-01-19T15:54:41.657Z,12.83
2019-01-19T15:57:47.245Z,12.37
2019-01-19T16:00:28.733Z,12.87
2019-01-19T16:03:13.753Z,13.90
2019-01-19T16:06:13.142Z,11.67
2019-01-19T16:09:09.149Z,11.15
2019-01-19T16:11:56.479Z,12.97
2019-01-19T16:15:07.217Z,9.93
2019-01-19T16:18:26.076Z,8.63
2019-01-19T16:21:31.541Z,9.77
2019-01-19T16:24:20.873Z,8.97
2019-01-19T16:27:26.674Z,18.85
2019-01-19T16:30:46.123Z,10.90
2019-01-19T16:33:27.280Z,10.27
2019-01-19T16:36:37.469Z,10.60
2019-01-19T16:40:02.865Z,9.80
2019-01-19T16:43:10.400Z,10.03
2019-01-19T16:46:19.549Z,10.23
2019-01-19T16:49:06.941Z,10.77
2019-01-19T16:52:09.696Z,15.27
2019-01-19T16:55:31.969Z,16.57
2019-01-19T16:58:29.345Z,45.30
2019-01-19T17:01:23.193Z,40.40
2019-01-19T17:04:16.192Z,25.10
2019-01-19T17:07:26.626Z,21.07
2019-01-19T17:10:18.437Z,12.70
2019-01-19T17:13:34.746Z,13.60
2019-01-19T17:16:43.575Z,14.37
2019-01-19T17:19:49.209Z,11.50
2019-01-19T17:22:56.830Z,10.90
2019-01-19T17:25:59.610Z,10.93
2019-01-19T17:29:05.093Z,9.43
2019-01-19T17:32:24.234Z,10.43
2019-01-19T17:35:31.317Z,9.70
2019-01-19T17:38:09.485Z,8.97
2019-01-19T17:41:08.496Z,10.37
2019-01-19T17:44:12.677Z,11.60
2019-01-19T17:47:00.693Z,10.77
2019-01-19T17:50:00.788Z,10.60
2019-01-19T17:53:14.005Z,10.87
2019-01-19T17:56:23.705Z,10.33
2019-01-19T17:59:10.593Z,10.50
2019-01-19T18:02:26.677Z,11.57
2019-01-19T18:05:37.606Z,12.50
2019-01-19T18:09:06.139Z,9.83
2019-01-19T18:12:16.653Z,10.30
2019-01-19T18:15:32.761Z,14.53
2019-01-19T18:18:26.782Z,13.33
2019-01-19T18:21:21.986Z,16.77
2019-01-19T18:24:32.189Z,13.87
2019-01-19T18:27:27.773Z,15.87
2019-01-19T18:30:33.783Z,14.30
2019-01-19T18:33:37.265Z,13.37
2019-01-19T18:36:55.454Z,14.97
2019-01-19T18:40:11.809Z,15.37
2019-01-19T18:42:52.834Z,16.50
2019-01-19T18:46:24.495Z,28.60
2019-01-19T18:49:20.667Z,46.10
2019-01-19T18:52:06.476Z,39.70
2019-01-19T18:54:57.545Z,55.17
2019-01-19T18:58:04.637Z,52.23
2019-01-19T19:01:08.099Z,67.80
2019-01-19T19:04:33.913Z,60.70
2019-01-19T19:08:02.469Z,39.03
2019-01-19T19:11:38.262Z,32.57
2019-01-19T19:14:32.869Z,32.63
2019-01-19T19:17:29.437Z,21.93
2019-01-19T19:20:35.901Z,19.13
2019-01-19T19:23:46.226Z,16.93
2019-01-19T19:26:51.974Z,17.53
2019-01-19T19:30:02.406Z,18.80
2019-01-19T19:33:11.528Z,21.50
2019-01-19T19:36:36.581Z,18.50
2019-01-19T19:39:46.905Z,21.65
2019-01-19T19:42:40.065Z,25.50
2019-01-19T19:46:05.786Z,21.17
2019-01-19T19:49:15.853Z,20.23
2019-01-19T19:51:56.371Z,19.53
2019-01-19T19:54:26.039Z,17.30
2019-01-19T19:56:55.195Z,18.60
2019-01-19T19:59:24.085Z,18.43
2019-01-19T20:01:55.677Z,22.70
2019-01-19T20:04:24.517Z,17.60
2019-01-19T20:06:53.752Z,18.03
2019-01-19T20:09:22.684Z,21.47
2019-01-19T20:11:54.754Z,23.53
2019-01-19T20:14:24.631Z,19.13
2019-01-19T20:16:53.521Z,16.93
2019-01-19T20:19:22.521Z,16.13
2019-01-19T20:21:51.446Z,18.57
2019-01-19T20:24:20.490Z,18.97
2019-01-19T20:26:49.613Z,16.13
2019-01-19T20:29:18.889Z,15.53
2019-01-19T20:31:47.898Z,16.73
2019-01-19T20:34:16.669Z,16.03
2019-01-19T20:36:46.103Z,15.80
2019-01-19T20:39:14.979Z,16.30
2019-01-19T20:41:43.810Z,15.93
2019-01-19T20:44:13.069Z,18.47
2019-01-19T20:46:41.904Z,18.20
2019-01-19T20:49:12.900Z,17.33
2019-01-19T20:51:41.880Z,17.27
2019-01-19T20:54:11.774Z,16.37
2019-01-19T20:56:40.749Z,16.37
2019-01-19T20:59:09.949Z,15.80
2019-01-19T21:01:38.977Z,16.43
2019-01-19T21:04:07.949Z,17.03
2019-01-19T21:06:37.062Z,17.10
2019-01-19T21:09:10.157Z,16.40
2019-01-19T21:11:39.425Z,16.30
2019-01-19T21:14:11.382Z,15.70
2019-01-19T21:16:40.149Z,16.30
2019-01-19T21:19:08.970Z,16.30
2019-01-19T21:21:37.890Z,15.83
2019-01-19T21:24:07.162Z,17.67
2019-01-19T21:26:36.217Z,17.87
2019-01-19T21:29:05.260Z,16.87
2019-01-19T21:31:34.069Z,16.13
2019-01-19T21:34:02.957Z,16.80
2019-01-19T21:36:31.790Z,17.70
2019-01-19T21:39:00.553Z,15.50
2019-01-19T21:41:29.428Z,16.40
2019-01-19T21:43:59.460Z,15.87
2019-01-19T21:46:28.190Z,14.40
2019-01-19T21:48:56.943Z,15.50
2019-01-19T21:51:25.710Z,16.50
2019-01-19T21:53:54.934Z,16.90
2019-01-19T21:56:23.968Z,16.13
2019-01-19T21:58:53.339Z,15.80
2019-01-19T22:01:22.370Z,15.03
2019-01-19T22:03:51.349Z,15.37
2019-01-19T22:06:20.278Z,17.13
2019-01-19T22:08:49.053Z,15.97
2019-01-19T22:11:17.885Z,17.00
2019-01-19T22:13:47.361Z,17.47
2019-01-19T22:16:16.159Z,17.17
2019-01-19T22:18:45.010Z,17.73
2019-01-19T22:21:13.810Z,18.07
2019-01-19T22:23:42.957Z,18.67
2019-01-19T22:26:14.580Z,18.30
2019-01-19T22:28:43.705Z,18.43
2019-01-19T22:31:12.453Z,19.03
2019-01-19T22:33:41.356Z,16.30
2019-01-19T22:36:10.165Z,18.47
2019-01-19T22:38:39.810Z,18.93
2019-01-19T22:41:08.609Z,18.03
2019-01-19T22:43:37.909Z,18.30
2019-01-19T22:46:06.809Z,17.23
2019-01-19T22:48:36.565Z,17.30
2019-01-19T22:51:11.219Z,18.83
2019-01-19T22:53:36.463Z,18.77
2019-01-19T22:56:05.658Z,17.73
2019-01-19T22:58:35.534Z,19.57
2019-01-19T23:01:23.522Z,19.60
2019-01-19T23:03:52.881Z,19.93
2019-01-19T23:06:21.627Z,19.63
2019-01-19T23:08:53.551Z,20.47
2019-01-19T23:11:22.645Z,20.20
2019-01-19T23:13:51.824Z,19.23
2019-01-19T23:16:20.622Z,20.33
2019-01-19T23:18:49.617Z,21.37
2019-01-19T23:21:18.847Z,19.80
2019-01-19T23:23:47.865Z,20.23
2019-01-19T23:26:17.011Z,20.03
2019-01-19T23:28:46.441Z,19.03
2019-01-19T23:31:15.407Z,19.83
2019-01-19T23:33:44.473Z,20.17
2019-01-19T23:36:13.589Z,22.67
2019-01-19T23:38:42.601Z,20.43
2019-01-19T23:41:11.844Z,20.40
2019-01-19T23:43:40.698Z,20.77
2019-01-19T23:46:10.097Z,18.90
2019-01-19T23:48:38.931Z,18.77
2019-01-19T23:51:07.681Z,19.67
2019-01-19T23:53:36.873Z,19.57
2019-01-19T23:56:05.678Z,20.90
2019-01-19T23:58:36.367Z,21.80
